Time;durP1;ratioP1;P1;durP2;ratioP2;P2;SDS_P1;SDS_P2;PMS_P1;PMS_P2;Temp;Humidity;BMP_temperature;BMP_pressure;BME280_temperature;BME280_humidity;BME280_pressure;Samples;Min_cycle;Max_cycle;Signal;HPM_P1;HPM_P2
2021/10/07 00:00:08;;;;;;;11.60;5.75;;;;;;;4.17;55.86;101500.39;1697868;82;21508;-59
2021/10/07 00:02:36;;;;;;;12.93;5.72;;;;;;;4.16;55.87;101502.97;1718004;82;21579;-60
2021/10/07 00:05:06;;;;;;;8.43;5.97;;;;;;;4.14;55.85;101508.58;1713504;82;21479;-59
2021/10/07 00:07:33;;;;;;;11.97;5.97;;;;;;;4.14;56.01;101510.75;1708875;82;22197;-59
2021/10/07 00:10:02;;;;;;;6.75;6.08;;;;;;;4.15;56.04;101514.25;1690188;82;21428;-61
2021/10/07 00:12:30;;;;;;;10.55;5.60;;;;;;;4.12;56.04;101508.55;1702107;82;21626;-63
2021/10/07 00:14:56;;;;;;;11.45;6.28;;;;;;;4.12;56.10;101511.16;1714455;82;21504;-62
2021/10/07 00:17:23;;;;;;;8.53;6.03;;;;;;;4.09;56.10;101513.30;1698697;82;21085;-62
2021/10/07 00:19:50;;;;;;;9.83;6.03;;;;;;;4.09;56.21;101508.53;1706620;82;22105;-63
2021/10/07 00:22:16;;;;;;;10.10;6.45;;;;;;;4.07;56.29;101511.11;1714602;82;21439;-61
2021/10/07 00:24:43;;;;;;;6.72;5.33;;;;;;;4.05;56.34;101510.63;1704069;82;21523;-62
2021/10/07 00:27:10;;;;;;;8.68;5.15;;;;;;;4.04;56.36;101516.70;1718826;82;21491;-64
2021/10/07 00:29:43;;;;;;;9.13;5.65;;;;;;;4.03;56.39;101517.54;1704871;82;20950;-61
2021/10/07 00:32:12;;;;;;;12.10;5.55;;;;;;;4.01;56.49;101519.25;1706610;82;21860;-61
2021/10/07 00:39:56;;;;;;;6.37;4.97;;;;;;;3.94;56.38;101520.01;1711189;82;21586;-60
2021/10/07 00:42:24;;;;;;;10.60;4.95;;;;;;;3.91;56.45;101514.34;1700430;82;21626;-64
2021/10/07 00:44:50;;;;;;;14.05;5.60;;;;;;;3.90;56.61;101520.42;1695246;82;21783;-61
2021/10/07 00:47:17;;;;;;;11.22;5.05;;;;;;;3.89;56.61;101522.13;1709195;82;21026;-61
2021/10/07 00:49:44;;;;;;;8.10;5.28;;;;;;;3.86;56.68;101522.09;1718419;82;21518;-61
2021/10/07 00:52:14;;;;;;;7.33;4.95;;;;;;;3.86;56.81;101523.80;1708139;82;21550;-60
2021/10/07 00:54:41;;;;;;;16.67;4.97;;;;;;;3.85;56.87;101528.58;1691470;82;21514;-59
2021/10/07 00:57:09;;;;;;;10.10;5.50;;;;;;;3.84;56.88;101529.02;1697933;82;22037;-61
2021/10/07 00:59:35;;;;;;;;;;;;;;;3.82;57.11;101533.28;1711664;82;21471;-61
2021/10/07 01:02:05;;;;;;;8.38;4.92;;;;;;;3.81;57.44;101533.29;1699613;82;20447;-61
2021/10/07 01:04:32;;;;;;;8.85;4.80;;;;;;;3.76;57.14;101537.54;1681481;82;21084;-61
2021/10/07 01:07:00;;;;;;;9.20;5.10;;;;;;;3.74;57.17;101535.34;1708963;82;21432;-64
2021/10/07 01:09:28;;;;;;;11.88;5.33;;;;;;;3.74;57.14;101539.25;1703483;82;21759;-61
2021/10/07 01:11:58;;;;;;;7.20;4.65;;;;;;;3.71;57.26;101540.05;1687397;82;21666;-61
2021/10/07 01:15:00;;;;;;;12.18;5.87;;;;;;;3.68;57.31;101534.39;1686973;83;21148;-61
2021/10/07 01:17:30;;;;;;;8.78;5.12;;;;;;;3.66;57.34;101537.39;1631771;85;21131;-61
2021/10/07 01:20:01;;;;;;;6.83;5.40;;;;;;;3.67;57.25;101541.77;1634937;86;21549;-62
2021/10/07 01:22:29;;;;;;;8.33;5.08;;;;;;;3.66;57.22;101543.03;1634586;85;21800;-61
2021/10/07 01:25:00;;;;;;;13.15;5.37;;;;;;;3.64;57.15;101538.23;1634514;86;21202;-62
2021/10/07 01:27:28;;;;;;;9.88;6.03;;;;;;;3.66;57.15;101552.14;1634795;86;21133;-61
2021/10/07 01:30:09;;;;;;;9.25;5.45;;;;;;;3.62;57.18;101546.44;1650471;84;21655;-61
2021/10/07 01:32:38;;;;;;;7.72;5.17;;;;;;;3.61;57.17;101551.18;1631082;86;21150;-61
2021/10/07 01:35:06;;;;;;;9.73;5.50;;;;;;;3.59;57.14;101552.45;1655061;84;21764;-60
2021/10/07 01:37:33;;;;;;;8.55;5.78;;;;;;;3.58;57.28;101558.92;1634689;85;21548;-61
2021/10/07 01:40:01;;;;;;;8.10;4.80;;;;;;;3.59;57.25;101552.45;1634855;85;21534;-61
2021/10/07 01:42:27;;;;;;;12.47;5.45;;;;;;;3.60;57.23;101559.81;1635252;85;22189;-63
2021/10/07 01:44:54;;;;;;;11.35;5.90;;;;;;;3.58;57.29;101558.92;1635270;87;21581;-60
2021/10/07 01:47:21;;;;;;;12.07;6.25;;;;;;;3.58;57.26;101560.22;1634871;86;22071;-60
2021/10/07 01:49:47;;;;;;;6.28;4.75;;;;;;;3.57;57.32;101563.69;1634088;86;21578;-60
2021/10/07 01:52:14;;;;;;;6.72;4.95;;;;;;;3.53;57.32;101561.45;1635065;86;21552;-60
2021/10/07 01:54:41;;;;;;;9.50;5.30;;;;;;;3.52;57.39;101562.30;1634850;86;21551;-60
2021/10/07 01:57:07;;;;;;;8.33;4.78;;;;;;;3.51;57.47;101565.33;1635276;86;21674;-60
2021/10/07 01:59:34;;;;;;;11.93;5.63;;;;;;;3.50;57.47;101573.10;1635268;86;21729;-60
2021/10/07 02:02:01;;;;;;;7.22;4.83;;;;;;;3.47;57.55;101570.47;1634905;86;21841;-60
2021/10/07 02:04:28;;;;;;;6.70;5.10;;;;;;;3.48;57.45;101572.20;1635825;86;21604;-60
2021/10/07 02:06:55;;;;;;;7.30;4.50;;;;;;;3.46;57.44;101574.77;1636673;86;21529;-61
2021/10/07 02:09:22;;;;;;;10.38;4.83;;;;;;;3.43;57.46;101581.67;1635087;87;21831;-61
2021/10/07 02:11:50;;;;;;;8.60;5.00;;;;;;;3.40;57.48;101578.57;1634279;86;21459;-60
2021/10/07 02:14:16;;;;;;;8.35;4.78;;;;;;;3.42;57.46;101581.20;1634755;86;21577;-60
2021/10/07 02:16:43;;;;;;;9.15;4.55;;;;;;;3.41;57.30;101575.54;1632163;85;21553;-60
2021/10/07 02:19:10;;;;;;;11.75;4.60;;;;;;;3.39;57.38;101574.23;1632971;87;21523;-61
2021/10/07 02:21:36;;;;;;;11.53;4.60;;;;;;;3.38;57.33;101579.41;1632641;87;21549;-61
2021/10/07 02:24:03;;;;;;;5.90;4.78;;;;;;;3.37;57.35;101577.64;1631238;86;21774;-60
2021/10/07 02:26:30;;;;;;;8.78;4.92;;;;;;;3.35;57.41;101577.61;1631987;86;21631;-60
2021/10/07 02:28:57;;;;;;;7.90;4.20;;;;;;;3.34;57.38;101578.48;1630294;86;20977;-60
2021/10/07 02:31:24;;;;;;;11.73;5.10;;;;;;;3.30;57.42;101572.34;1629876;87;21519;-61
2021/10/07 02:33:50;;;;;;;7.12;4.80;;;;;;;3.29;57.56;101575.77;1610901;87;21537;-61
2021/10/07 02:36:17;;;;;;;8.67;4.40;;;;;;;3.27;57.83;101585.70;1635042;86;22094;-61
2021/10/07 02:38:44;;;;;;;12.85;4.72;;;;;;;3.27;57.83;101585.70;1607209;86;22214;-61
2021/10/07 02:41:10;;;;;;;9.38;4.33;;;;;;;3.26;57.71;101579.64;1628608;87;21656;-61
2021/10/07 02:43:37;;;;;;;8.50;4.37;;;;;;;3.26;57.75;101583.97;1633119;87;21479;-61
2021/10/07 02:46:04;;;;;;;18.70;5.53;;;;;;;3.25;57.78;101581.77;1633248;87;21534;-61
2021/10/07 02:48:31;;;;;;;;;;;;;;;3.23;57.75;101587.80;1634182;87;21651;-61
2021/10/07 02:50:58;;;;;;;6.22;4.15;;;;;;;3.21;57.88;101594.27;1630951;87;20436;-61
2021/10/07 02:53:30;;;;;;;6.05;4.40;;;;;;;3.19;57.73;101588.60;1630938;86;21514;-61
2021/10/07 02:55:55;;;;;;;7.72;4.03;;;;;;;3.17;57.76;101589.00;1631207;86;21562;-60
2021/10/07 02:58:21;;;;;;;9.80;4.30;;;;;;;3.17;57.75;101589.00;1632457;86;21531;-63
2021/10/07 03:00:48;;;;;;;7.55;4.90;;;;;;;3.15;57.82;101593.30;1631300;87;21835;-63
2021/10/07 03:03:15;;;;;;;6.70;3.58;;;;;;;3.15;57.88;101594.16;1629879;87;21454;-63
2021/10/07 03:05:41;;;;;;;9.05;4.28;;;;;;;3.15;57.82;101594.16;1635412;86;21486;-63
2021/10/07 03:08:08;;;;;;;14.10;4.53;;;;;;;3.15;57.88;101599.36;1633526;86;21530;-62
2021/10/07 03:10:35;;;;;;;10.43;4.30;;;;;;;3.14;57.80;101604.09;1634992;86;21606;-62
2021/10/07 03:13:02;;;;;;;6.45;4.60;;;;;;;3.12;57.88;101601.45;1631805;86;22037;-62
2021/10/07 03:15:29;;;;;;;4.83;3.87;;;;;;;3.12;57.87;101598.86;1628890;87;21696;-63
2021/10/07 03:17:56;;;;;;;13.05;4.65;;;;;;;3.06;57.91;101588.79;1613744;87;21463;-61
2021/10/07 03:20:23;;;;;;;11.18;4.72;;;;;;;3.12;57.95;101594.96;1621144;87;21060;-62
2021/10/07 03:22:50;;;;;;;10.77;4.30;;;;;;;3.11;57.84;101601.02;1611372;87;21445;-61
2021/10/07 03:25:16;;;;;;;11.20;4.35;;;;;;;3.11;57.88;101602.76;1587127;89;22126;-62
2021/10/07 03:27:43;;;;;;;5.17;4.25;;;;;;;3.10;57.92;101603.59;1584405;88;21612;-62
2021/10/07 03:30:10;;;;;;;5.25;4.22;;;;;;;3.08;58.01;101598.79;1585603;88;21506;-63
2021/10/07 03:32:37;;;;;;;4.53;3.77;;;;;;;2.99;58.03;101584.31;1608617;88;21457;-61
2021/10/07 03:35:05;;;;;;;5.92;3.95;;;;;;;3.06;58.04;101604.38;1588583;88;21094;-62
2021/10/07 03:37:33;;;;;;;4.10;3.50;;;;;;;3.05;57.96;101607.41;1599920;88;21552;-62
2021/10/07 03:40:00;;;;;;;7.15;4.25;;;;;;;3.04;58.14;101614.74;1613234;88;21468;-62
2021/10/07 03:42:26;;;;;;;8.43;4.33;;;;;;;3.02;58.09;101617.73;1585021;89;21584;-61
2021/10/07 03:44:54;;;;;;;5.53;4.15;;;;;;;3.01;58.06;101613.37;1583825;90;21127;-62
2021/10/07 03:47:21;;;;;;;10.13;4.40;;;;;;;3.00;58.10;101615.53;1583980;88;21577;-61
2021/10/07 03:49:47;;;;;;;6.05;4.17;;;;;;;2.98;58.18;101614.63;1610840;88;21809;-61
2021/10/07 03:52:14;;;;;;;5.75;4.17;;;;;;;2.96;58.20;101613.73;1606389;87;21472;-61
2021/10/07 03:54:41;;;;;;;10.38;3.87;;;;;;;2.95;58.22;101614.56;1582828;89;21525;-61
2021/10/07 03:57:08;;;;;;;9.13;4.05;;;;;;;2.93;58.35;101621.45;1617139;86;21591;-62
2021/10/07 03:59:34;;;;;;;11.20;4.50;;;;;;;2.90;58.34;101605.78;1583465;90;21647;-62
2021/10/07 04:02:01;;;;;;;5.85;3.95;;;;;;;2.90;58.42;101610.98;1610158;87;21569;-62
2021/10/07 04:04:28;;;;;;;9.10;4.13;;;;;;;2.89;58.44;101607.95;1582787;88;21486;-61
2021/10/07 04:06:56;;;;;;;9.25;4.05;;;;;;;2.86;58.47;101610.47;1610812;88;28770;-62
2021/10/07 04:09:23;;;;;;;8.68;4.12;;;;;;;2.85;58.62;101612.20;1584112;88;21616;-62
2021/10/07 04:11:49;;;;;;;6.33;3.55;;;;;;;2.83;58.68;101608.70;1610750;88;21550;-62
2021/10/07 04:14:16;;;;;;;7.15;4.08;;;;;;;2.81;58.76;101611.70;1586843;88;21930;-62
2021/10/07 04:16:42;;;;;;;7.62;4.05;;;;;;;2.78;58.91;101614.65;1606707;87;21614;-63
2021/10/07 04:19:11;;;;;;;6.95;4.78;;;;;;;2.76;59.15;101612.45;1631456;86;20986;-62
2021/10/07 04:21:39;;;;;;;6.40;3.87;;;;;;;2.76;59.14;101616.34;1632627;87;21562;-62
2021/10/07 04:24:06;;;;;;;6.42;4.20;;;;;;;2.72;59.27;101622.77;1629337;87;21644;-62
2021/10/07 04:26:33;;;;;;;7.45;4.05;;;;;;;2.70;59.37;101625.75;1632094;86;21787;-62
2021/10/07 04:28:59;;;;;;;5.65;3.70;;;;;;;2.69;59.45;101627.02;1629282;87;21565;-61
2021/10/07 04:31:26;;;;;;;7.95;4.42;;;;;;;2.67;59.47;101629.57;1628212;86;21092;-63
2021/10/07 04:33:52;;;;;;;9.23;4.10;;;;;;;2.63;59.44;101630.35;1630819;86;21593;-61
2021/10/07 04:36:19;;;;;;;6.87;4.37;;;;;;;2.62;59.52;101626.42;1629904;87;21056;-61
2021/10/07 04:38:46;;;;;;;5.08;3.92;;;;;;;2.61;59.58;101630.75;1632584;86;21443;-62
2021/10/07 04:41:13;;;;;;;7.95;4.22;;;;;;;2.61;59.58;101631.18;1633173;86;21426;-61
2021/10/07 04:43:39;;;;;;;6.45;4.03;;;;;;;2.62;59.51;101623.82;1628462;86;21615;-62
2021/10/07 04:46:06;;;;;;;7.25;4.40;;;;;;;2.64;59.51;101626.93;1634691;86;21660;-61
2021/10/07 04:48:33;;;;;;;7.90;4.03;;;;;;;2.67;59.46;101624.38;1631475;86;21569;-62
2021/10/07 04:51:00;;;;;;;4.83;4.05;;;;;;;2.68;59.57;101621.38;1634502;86;22095;-62
2021/10/07 04:53:27;;;;;;;5.50;3.80;;;;;;;2.69;59.57;101620.52;1631977;87;21491;-62
2021/10/07 04:55:58;;;;;;;5.37;3.70;;;;;;;2.73;59.57;101619.73;1628681;86;21577;-62
2021/10/07 04:58:25;;;;;;;6.42;4.05;;;;;;;2.76;59.38;101619.80;1630472;86;21538;-62
2021/10/07 05:00:52;;;;;;;12.82;4.42;;;;;;;2.80;59.29;101622.05;1629781;86;21583;-61
2021/10/07 05:03:19;;;;;;;5.62;3.90;;;;;;;2.82;59.31;101628.16;1630521;86;21808;-62
2021/10/07 05:05:45;;;;;;;5.60;4.35;;;;;;;2.86;59.29;101628.66;1606454;87;21587;-61
2021/10/07 05:08:12;;;;;;;9.58;4.03;;;;;;;2.90;59.31;101636.57;1635330;86;21515;-63
2021/10/07 05:10:38;;;;;;;16.55;4.75;;;;;;;2.93;59.27;101642.23;1633059;86;21597;-61
2021/10/07 05:13:06;;;;;;;5.15;3.65;;;;;;;2.96;59.17;101637.52;1636258;87;22332;-62
2021/10/07 05:15:34;;;;;;;6.05;4.15;;;;;;;3.00;59.08;101632.43;1631682;86;21746;-62
2021/10/07 05:18:00;;;;;;;7.28;4.28;;;;;;;3.05;59.33;101632.50;1619429;86;21530;-62
2021/10/07 05:20:27;;;;;;;5.67;4.30;;;;;;;3.10;59.00;101632.19;1616756;87;21688;-61
2021/10/07 05:22:54;;;;;;;7.25;4.33;;;;;;;3.14;58.94;101633.13;1614207;85;21589;-62
2021/10/07 05:25:21;;;;;;;5.58;4.15;;;;;;;3.17;58.96;101637.09;1611280;87;21101;-62
2021/10/07 05:27:47;;;;;;;7.20;4.00;;;;;;;3.20;58.89;101639.33;1627269;85;22119;-62
2021/10/07 05:30:14;;;;;;;6.53;4.37;;;;;;;3.26;58.93;101648.54;1617410;87;21458;-63
2021/10/07 05:32:41;;;;;;;5.20;3.98;;;;;;;3.30;58.80;101647.75;1609162;87;21616;-62
2021/10/07 05:35:08;;;;;;;6.25;4.12;;;;;;;3.37;58.79;101650.05;1604191;85;21250;-62
2021/10/07 05:37:35;;;;;;;11.43;5.08;;;;;;;3.44;58.72;101649.29;1617600;87;21528;-63
2021/10/07 05:40:02;;;;;;;6.30;4.72;;;;;;;3.50;58.77;101649.42;1612348;87;22667;-63
2021/10/07 05:42:31;;;;;;;5.65;4.05;;;;;;;3.57;58.58;101644.33;1607906;87;21580;-62
2021/10/07 05:44:58;;;;;;;7.72;4.25;;;;;;;3.61;58.34;101649.59;1606231;87;21490;-63
2021/10/07 05:47:24;;;;;;;9.13;5.05;;;;;;;3.67;58.24;101650.13;1613256;87;21566;-64
2021/10/07 05:49:51;;;;;;;9.03;4.62;;;;;;;3.73;58.19;101653.27;1616273;87;21064;-63
2021/10/07 05:52:18;;;;;;;10.50;4.60;;;;;;;3.80;58.09;101650.79;1604485;87;22110;-64
2021/10/07 05:54:44;;;;;;;9.88;4.60;;;;;;;3.87;57.97;101652.66;1608670;85;21613;-63
2021/10/07 05:57:11;;;;;;;8.43;4.83;;;;;;;3.94;57.86;101653.65;1628419;87;21585;-64
2021/10/07 05:59:38;;;;;;;7.05;4.35;;;;;;;4.01;57.75;101650.70;1605465;87;21948;-64
2021/10/07 06:02:05;;;;;;;6.05;4.42;;;;;;;4.07;57.84;101653.42;1610544;85;21538;-63
2021/10/07 06:04:32;;;;;;;11.63;4.08;;;;;;;4.13;57.71;101663.92;1621981;87;21838;-61
2021/10/07 06:06:59;;;;;;;9.35;4.15;;;;;;;4.21;57.65;101658.84;1610548;85;21611;-61
2021/10/07 06:09:25;;;;;;;10.10;4.95;;;;;;;4.28;57.50;101658.95;1629178;85;21087;-61
2021/10/07 06:11:52;;;;;;;6.65;4.28;;;;;;;4.38;57.50;101663.00;1619398;85;21549;-61
2021/10/07 06:14:19;;;;;;;10.15;3.92;;;;;;;4.43;57.30;101660.91;1608492;87;21684;-66
2021/10/07 06:16:50;;;;;;;7.10;4.25;;;;;;;4.53;57.30;101662.35;1611471;86;21474;-63
2021/10/07 06:19:16;;;;;;;9.55;3.92;;;;;;;4.60;57.10;101666.80;1637579;86;21025;-64
2021/10/07 06:22:32;;;;;;;6.42;4.03;;;;;;;4.79;56.78;101664.88;1794335;78;23900;-63
2021/10/07 06:24:58;;;;;;;9.93;4.20;;;;;;;4.84;56.61;101669.73;1751898;80;21469;-62
2021/10/07 06:27:26;;;;;;;6.67;3.60;;;;;;;4.94;56.48;101665.52;1759547;80;21802;-62
2021/10/07 06:29:52;;;;;;;5.85;4.28;;;;;;;5.04;56.37;101666.06;1760821;79;21537;-62
2021/10/07 06:32:19;;;;;;;7.78;4.00;;;;;;;5.13;55.94;101665.74;1760264;80;21438;-63
2021/10/07 06:34:46;;;;;;;9.85;4.10;;;;;;;5.21;55.69;101666.26;1764737;79;21577;-62
2021/10/07 06:37:12;;;;;;;6.22;3.85;;;;;;;5.31;55.59;101673.75;1761514;80;21532;-64
2021/10/07 06:39:39;;;;;;;9.65;4.00;;;;;;;5.39;55.13;101674.73;1755166;80;22027;-64
2021/10/07 06:42:06;;;;;;;5.47;3.95;;;;;;;5.49;54.87;101674.84;1755069;80;21007;-63
2021/10/07 06:44:33;;;;;;;10.00;4.22;;;;;;;5.59;54.59;101677.53;1751244;79;21601;-65
2021/10/07 06:47:01;;;;;;;9.48;4.25;;;;;;;5.68;54.21;101678.06;1756282;80;21020;-64
2021/10/07 06:49:29;;;;;;;10.05;4.75;;;;;;;5.79;54.24;101679.48;1752596;80;21659;-62
2021/10/07 06:51:56;;;;;;;14.03;5.42;;;;;;;5.87;53.68;101675.63;1719773;81;21545;-66
2021/10/07 06:54:23;;;;;;;14.50;5.30;;;;;;;5.94;53.56;101673.09;1695855;83;21609;-67
2021/10/07 06:56:50;;;;;;;10.03;4.95;;;;;;;6.02;53.35;101677.97;1724030;81;20994;-63
2021/10/07 06:59:17;;;;;;;7.55;4.97;;;;;;;6.09;52.93;101668.91;1701795;83;21029;-62
2021/10/07 07:01:44;;;;;;;11.60;4.93;;;;;;;6.17;52.94;101673.30;1696750;83;21562;-63
2021/10/07 07:04:15;;;;;;;9.60;3.90;;;;;;;6.26;52.57;101678.17;1700950;83;21848;-64
2021/10/07 07:06:40;;;;;;;10.90;4.47;;;;;;;6.33;52.23;101682.55;1707390;81;21516;-63
2021/10/07 07:09:07;;;;;;;7.95;4.22;;;;;;;6.41;52.12;101680.89;1725043;81;21508;-63
2021/10/07 07:11:34;;;;;;;8.10;4.22;;;;;;;6.50;51.83;101678.34;1699070;83;21510;-63
2021/10/07 07:14:02;;;;;;;6.45;4.37;;;;;;;6.58;51.85;101671.85;1696396;83;21531;-63
2021/10/07 07:16:30;;;;;;;9.90;4.55;;;;;;;6.69;51.70;101674.09;1714867;81;21432;-62
2021/10/07 07:18:57;;;;;;;5.90;4.08;;;;;;;6.80;51.49;101672.86;1712728;82;21027;-63
2021/10/07 07:21:26;;;;;;;7.08;4.28;;;;;;;6.89;51.10;101674.63;1700955;82;21650;-65
2021/10/07 07:23:53;;;;;;;11.20;4.83;;;;;;;6.98;50.64;101675.53;1756174;80;21425;-65
2021/10/07 07:26:20;;;;;;;6.20;3.98;;;;;;;7.05;50.44;101677.75;1743604;80;26981;-64
2021/10/07 07:28:47;;;;;;;10.50;4.55;;;;;;;7.14;50.18;101680.41;1747301;80;22131;-65
2021/10/07 07:31:13;;;;;;;12.45;3.85;;;;;;;7.21;49.50;101674.34;1754906;80;21596;-64
2021/10/07 07:33:40;;;;;;;5.60;4.08;;;;;;;7.30;49.61;101683.08;1745285;80;21022;-66
2021/10/07 07:36:07;;;;;;;9.23;4.17;;;;;;;7.38;49.09;101682.66;1755680;80;21608;-67
2021/10/07 07:38:34;;;;;;;8.65;4.15;;;;;;;7.48;49.19;101686.16;1739318;80;21005;-65
2021/10/07 07:41:01;;;;;;;15.10;4.25;;;;;;;7.55;48.67;101678.77;1749593;80;21888;-67
2021/10/07 07:43:28;;;;;;;10.23;4.53;;;;;;;7.61;48.26;101684.05;1745824;80;21026;-66
2021/10/07 07:45:55;;;;;;;7.42;3.85;;;;;;;7.69;47.98;101683.61;1687227;82;21625;-66
2021/10/07 07:48:22;;;;;;;7.75;4.03;;;;;;;7.76;47.46;101692.33;1746914;80;21502;-65
2021/10/07 07:50:49;;;;;;;11.40;4.50;;;;;;;7.84;47.09;101689.75;1757229;80;21598;-64
2021/10/07 07:53:16;;;;;;;;;;;;;;;7.91;47.01;101690.17;1755601;80;21638;-63
2021/10/07 07:55:43;;;;;;;5.58;3.83;;;;;;;7.97;45.97;101688.89;1747397;80;20455;-64
2021/10/07 07:58:11;;;;;;;9.08;3.72;;;;;;;8.03;46.86;101692.81;1756085;80;21432;-64
2021/10/07 08:00:39;;;;;;;13.50;3.65;;;;;;;8.13;46.70;101688.44;1746295;80;21534;-64
2021/10/07 08:03:06;;;;;;;9.13;4.22;;;;;;;8.22;46.31;101686.27;1742669;80;21506;-64
2021/10/07 08:05:33;;;;;;;10.10;3.67;;;;;;;8.32;46.05;101686.23;1746383;80;21744;-63
2021/10/07 08:08:00;;;;;;;9.58;3.85;;;;;;;8.37;45.63;101679.70;1747487;80;21409;-65
2021/10/07 08:10:27;;;;;;;8.53;2.90;;;;;;;8.43;45.84;101686.27;1757341;80;21558;-64
2021/10/07 08:12:54;;;;;;;10.17;2.87;;;;;;;8.53;45.23;101682.77;1749096;80;21504;-64
2021/10/07 08:15:21;;;;;;;8.53;3.30;;;;;;;8.61;44.60;101681.86;1743844;80;21582;-64
2021/10/07 08:17:48;;;;;;;6.87;3.10;;;;;;;8.70;44.63;101687.98;1752234;80;22150;-63
2021/10/07 08:20:16;;;;;;;7.03;3.05;;;;;;;8.78;44.32;101684.02;1741153;80;21475;-63
2021/10/07 08:22:45;;;;;;;5.47;2.72;;;;;;;8.84;43.80;101683.12;1749856;80;21440;-63
2021/10/07 08:25:12;;;;;;;11.08;3.22;;;;;;;8.91;43.54;101671.71;1740906;80;21553;-65
2021/10/07 08:27:40;;;;;;;8.23;2.72;;;;;;;9.01;43.33;101673.89;1754844;80;21489;-63
2021/10/07 08:30:09;;;;;;;12.82;3.20;;;;;;;9.08;42.76;101671.23;1748338;80;22109;-66
2021/10/07 08:32:36;;;;;;;6.28;2.70;;;;;;;9.14;42.32;101662.01;1744006;80;21558;-66
2021/10/07 08:35:03;;;;;;;8.25;2.72;;;;;;;9.18;41.75;101669.43;1744002;80;21510;-67
2021/10/07 08:37:31;;;;;;;9.93;2.37;;;;;;;9.24;41.41;101666.77;1742484;80;21577;-68
2021/10/07 08:39:57;;;;;;;6.35;2.70;;;;;;;9.28;41.05;101665.87;1751220;80;21537;-66
2021/10/07 08:42:25;;;;;;;7.70;2.45;;;;;;;9.34;41.04;101666.27;1754824;80;21728;-65
2021/10/07 08:44:51;;;;;;;9.20;2.77;;;;;;;9.39;40.85;101666.27;1713710;80;21646;-66
2021/10/07 08:47:19;;;;;;;5.33;2.50;;;;;;;9.43;41.02;101654.41;1745746;80;21497;-64
2021/10/07 08:49:48;;;;;;;10.30;2.67;;;;;;;9.47;40.68;101648.25;1741343;80;21527;-68
2021/10/07 08:52:15;;;;;;;4.75;2.30;;;;;;;9.55;40.67;101644.30;1749353;80;21601;-69
2021/10/07 08:54:44;;;;;;;6.35;2.72;;;;;;;9.61;40.22;101648.19;1744797;80;21835;-69
2021/10/07 08:57:11;;;;;;;5.08;2.20;;;;;;;9.73;40.54;101649.84;1679823;83;21642;-70
2021/10/07 08:59:40;;;;;;;9.15;2.30;;;;;;;9.83;40.10;101648.02;1747382;80;22093;-66
2021/10/07 09:02:07;;;;;;;12.20;2.67;;;;;;;9.94;39.97;101644.86;1743661;80;21652;-66
2021/10/07 09:04:37;;;;;;;3.98;1.80;;;;;;;10.05;39.57;101640.37;1720760;80;21484;-66
2021/10/07 09:07:09;;;;;;;4.45;2.05;;;;;;;10.10;39.07;101641.22;1745305;80;21743;-65
2021/10/07 09:09:39;;;;;;;7.12;2.00;;;;;;;10.20;38.92;101634.56;1747655;80;21120;-66
2021/10/07 09:12:11;;;;;;;4.00;2.12;;;;;;;10.27;38.65;101632.31;1744602;80;20999;-65
2021/10/07 09:14:47;;;;;;;8.03;2.33;;;;;;;10.36;38.47;101632.67;1745004;80;21598;-66
2021/10/07 09:17:17;;;;;;;6.75;2.02;;;;;;;10.43;38.31;101627.78;1749174;80;21558;-69
2021/10/07 09:19:48;;;;;;;4.35;2.25;;;;;;;10.47;38.13;101631.70;1743413;80;21896;-70
2021/10/07 09:22:34;;;;;;;6.37;2.20;;;;;;;10.54;38.28;101629.86;1752627;80;21488;-70
2021/10/07 09:24:59;;;;;;;14.20;2.35;;;;;;;10.64;37.71;101632.83;1745521;80;21546;-66
2021/10/07 09:27:34;;;;;;;8.85;2.50;;;;;;;10.71;37.53;101630.98;1744746;80;21953;-66
2021/10/07 09:30:12;;;;;;;2.85;2.15;;;;;;;10.79;36.98;101637.47;1748561;80;21552;-64
2021/10/07 09:32:45;;;;;;;3.27;2.20;;;;;;;10.86;37.32;101632.56;1748994;80;21808;-66
2021/10/07 09:35:17;;;;;;;9.78;2.47;;;;;;;10.95;37.14;101627.64;1684990;82;21420;-65
2021/10/07 09:37:45;;;;;;;11.63;2.70;;;;;;;11.02;37.17;101635.86;1750443;80;21049;-65
2021/10/07 09:40:18;;;;;;;;;;;;;;;11.09;36.63;101634.89;1749702;80;21018;-65
2021/10/07 09:42:54;;;;;;;5.45;2.42;;;;;;;11.06;36.14;101629.23;1749226;80;20447;-62
2021/10/07 09:45:30;;;;;;;12.35;2.47;;;;;;;11.11;36.62;101633.11;1748737;80;21542;-62
2021/10/07 09:47:59;;;;;;;7.10;2.62;;;;;;;11.15;36.92;101641.84;1746050;80;21594;-63
2021/10/07 09:50:39;;;;;;;7.75;2.30;;;;;;;11.24;36.90;101631.19;1752413;80;21604;-60
2021/10/07 09:53:14;;;;;;;8.38;2.58;;;;;;;11.32;36.85;101624.06;1745622;80;21621;-66
2021/10/07 09:55:45;;;;;;;6.75;2.37;;;;;;;11.42;36.68;101620.84;1739037;80;21540;-68
2021/10/07 09:58:17;;;;;;;8.90;2.30;;;;;;;11.49;36.78;101611.51;1747274;80;21918;-66
2021/10/07 10:00:51;;;;;;;5.20;2.40;;;;;;;11.60;36.90;101607.83;1750510;80;21637;-66
2021/10/07 10:03:18;;;;;;;7.72;2.60;;;;;;;11.71;36.50;101603.25;1751952;80;21547;-68
2021/10/07 10:05:46;;;;;;;3.20;2.87;;;;;;;11.79;36.24;101602.70;1758656;80;21496;-66
2021/10/07 10:08:15;;;;;;;6.50;2.25;;;;;;;11.89;36.11;101595.50;1757889;80;21977;-67
2021/10/07 10:10:44;;;;;;;5.28;2.25;;;;;;;12.02;36.22;101598.83;1740629;80;22102;-68
2021/10/07 10:13:12;;;;;;;5.28;1.80;;;;;;;12.12;35.59;101604.34;1749225;80;21068;-66
2021/10/07 10:15:41;;;;;;;4.85;2.27;;;;;;;12.22;34.78;101606.36;1746442;80;21630;-67
2021/10/07 10:18:10;;;;;;;3.27;1.98;;;;;;;12.33;34.23;101594.30;1713177;82;20999;-65
2021/10/07 10:20:51;;;;;;;2.87;1.55;;;;;;;12.39;33.90;101592.86;1743282;80;21452;-65
2021/10/07 10:23:21;;;;;;;3.00;1.65;;;;;;;12.45;33.67;101584.39;1740626;80;21737;-66
2021/10/07 10:26:04;;;;;;;4.72;2.00;;;;;;;12.54;33.59;101585.09;1755150;80;21413;-66
2021/10/07 10:28:47;;;;;;;9.50;2.00;;;;;;;12.63;33.47;101579.63;1750514;80;21596;-65
2021/10/07 10:31:31;;;;;;;7.60;2.12;;;;;;;12.73;33.50;101580.30;1754250;80;21586;-66
2021/10/07 10:34:12;;;;;;;4.35;1.92;;;;;;;12.83;33.42;101585.83;1747920;80;21235;-67
2021/10/07 10:36:43;;;;;;;8.73;1.80;;;;;;;12.93;33.09;101569.33;1754139;80;21808;-67
2021/10/07 10:39:20;;;;;;;3.33;1.80;;;;;;;12.99;32.54;101567.41;1744543;80;21519;-68
2021/10/07 10:42:07;;;;;;;5.33;1.90;;;;;;;13.00;32.50;101567.84;1736306;80;21523;-66
2021/10/07 10:44:56;;;;;;;4.40;1.57;;;;;;;13.07;32.43;101571.20;1757435;80;21503;-66
2021/10/07 10:47:25;;;;;;;;;;;;;;;13.11;31.92;101568.04;1750008;80;21547;-65
2021/10/07 10:50:02;;;;;;;3.50;2.10;;;;;;;13.12;31.40;101569.33;1754785;80;21869;-68
2021/10/07 10:52:44;;;;;;;2.55;1.77;;;;;;;13.08;31.80;101554.47;1767962;80;21050;-67
2021/10/07 10:55:17;;;;;;;2.98;1.90;;;;;;;13.06;31.76;101561.55;1755885;80;21496;-66
2021/10/07 10:57:50;;;;;;;3.10;1.90;;;;;;;13.07;32.13;101559.31;1759078;80;21042;-67
2021/10/07 11:00:31;;;;;;;6.60;2.22;;;;;;;13.12;31.70;101556.13;1754741;80;21470;-68
2021/10/07 11:03:14;;;;;;;5.05;2.70;;;;;;;13.14;31.73;101552.13;1765893;80;21833;-65
2021/10/07 11:05:57;;;;;;;5.22;2.80;;;;;;;13.15;31.84;101555.20;1757053;80;21528;-65
2021/10/07 11:08:24;;;;;;;4.33;1.42;;;;;;;13.17;31.57;101550.75;1749388;80;21553;-66
2021/10/07 11:10:53;;;;;;;4.47;1.40;;;;;;;13.19;31.29;101554.23;1758769;80;21550;-65
2021/10/07 11:13:26;;;;;;;2.40;1.60;;;;;;;13.21;31.04;101549.31;1766730;80;21426;-65
2021/10/07 11:16:00;;;;;;;7.03;1.50;;;;;;;13.24;31.04;101549.68;1754219;80;22087;-65
2021/10/07 11:18:33;;;;;;;6.90;1.80;;;;;;;13.29;30.95;101554.88;1753521;80;21562;-64
2021/10/07 11:21:05;;;;;;;10.60;1.77;;;;;;;13.32;30.83;101550.88;1759162;80;21483;-65
2021/10/07 11:23:32;;;;;;;3.10;1.90;;;;;;;13.34;30.60;101550.39;1753394;80;21023;-64
2021/10/07 11:26:00;;;;;;;6.60;1.62;;;;;;;13.34;30.71;101541.14;1756580;80;21513;-64
2021/10/07 11:28:31;;;;;;;4.50;1.80;;;;;;;13.41;30.53;101548.87;1762066;80;22068;-64
2021/10/07 11:31:09;;;;;;;2.22;1.50;;;;;;;13.49;30.39;101553.12;1753051;80;21542;-63
2021/10/07 11:33:41;;;;;;;4.45;1.42;;;;;;;13.50;30.46;101547.77;1749511;80;21520;-63
2021/10/07 11:36:11;;;;;;;7.67;1.72;;;;;;;13.59;30.29;101545.36;1761243;80;21515;-64
2021/10/07 11:38:39;;;;;;;5.17;1.35;;;;;;;13.67;30.31;101538.09;1767502;80;21538;-62
2021/10/07 11:41:06;;;;;;;4.65;1.67;;;;;;;13.81;30.18;101544.37;1763465;80;22023;-62
2021/10/07 11:43:35;;;;;;;6.37;1.82;;;;;;;13.93;29.80;101542.70;1766288;80;21522;-63